sensor_id;sensor_type;location;lat;lon;timestamp;P1;durP1;ratioP1;P2;durP2;ratioP2
16288;SDS011;26089;43.538;5.250;2022-09-02T00:02:20;8.03;;;6.53;;
16288;SDS011;26089;43.538;5.250;2022-09-02T00:04:47;8.63;;;6.60;;
16288;SDS011;26089;43.538;5.250;2022-09-02T00:07:14;8.90;;;6.63;;
16288;SDS011;26089;43.538;5.250;2022-09-02T00:09:41;7.00;;;6.37;;
16288;SDS011;26089;43.538;5.250;2022-09-02T00:12:10;6.97;;;6.20;;
16288;SDS011;26089;43.538;5.250;2022-09-02T00:14:37;6.83;;;6.03;;
16288;SDS011;26089;43.538;5.250;2022-09-02T00:17:04;7.13;;;5.83;;
16288;SDS011;26089;43.538;5.250;2022-09-02T00:19:32;7.23;;;5.60;;
16288;SDS011;26089;43.538;5.250;2022-09-02T00:21:59;7.57;;;6.37;;
16288;SDS011;26089;43.538;5.250;2022-09-02T00:24:27;9.07;;;6.77;;
16288;SDS011;26089;43.538;5.250;2022-09-02T00:26:54;9.83;;;6.40;;
16288;SDS011;26089;43.538;5.250;2022-09-02T00:29:23;9.53;;;6.20;;
16288;SDS011;26089;43.538;5.250;2022-09-02T00:31:50;7.33;;;6.60;;
16288;SDS011;26089;43.538;5.250;2022-09-02T00:34:17;6.87;;;5.93;;
16288;SDS011;26089;43.538;5.250;2022-09-02T00:36:45;7.87;;;6.30;;
16288;SDS011;26089;43.538;5.250;2022-09-02T00:39:12;7.00;;;6.30;;
16288;SDS011;26089;43.538;5.250;2022-09-02T00:41:39;8.67;;;6.40;;
16288;SDS011;26089;43.538;5.250;2022-09-02T00:44:08;8.97;;;6.67;;
16288;SDS011;26089;43.538;5.250;2022-09-02T00:46:38;7.23;;;6.33;;
16288;SDS011;26089;43.538;5.250;2022-09-02T00:49:07;7.43;;;6.20;;
16288;SDS011;26089;43.538;5.250;2022-09-02T00:51:38;7.20;;;6.50;;
16288;SDS011;26089;43.538;5.250;2022-09-02T00:54:09;8.63;;;6.20;;
16288;SDS011;26089;43.538;5.250;2022-09-02T00:56:37;8.37;;;6.57;;
16288;SDS011;26089;43.538;5.250;2022-09-02T00:59:07;7.23;;;6.37;;
16288;SDS011;26089;43.538;5.250;2022-09-02T01:01:41;6.97;;;6.27;;
16288;SDS011;26089;43.538;5.250;2022-09-02T01:04:08;9.73;;;6.40;;
16288;SDS011;26089;43.538;5.250;2022-09-02T01:06:35;7.00;;;6.30;;
16288;SDS011;26089;43.538;5.250;2022-09-02T01:09:04;7.03;;;6.33;;
16288;SDS011;26089;43.538;5.250;2022-09-02T01:11:35;7.33;;;6.63;;
16288;SDS011;26089;43.538;5.250;2022-09-02T01:14:05;7.40;;;6.43;;
16288;SDS011;26089;43.538;5.250;2022-09-02T01:16:36;8.67;;;6.37;;
16288;SDS011;26089;43.538;5.250;2022-09-02T01:19:09;8.93;;;7.17;;
16288;SDS011;26089;43.538;5.250;2022-09-02T01:21:46;7.50;;;6.57;;
16288;SDS011;26089;43.538;5.250;2022-09-02T01:24:15;7.73;;;6.93;;
16288;SDS011;26089;43.538;5.250;2022-09-02T01:26:42;11.17;;;6.47;;
16288;SDS011;26089;43.538;5.250;2022-09-02T01:29:09;7.70;;;6.90;;
16288;SDS011;26089;43.538;5.250;2022-09-02T01:31:37;10.13;;;7.43;;
16288;SDS011;26089;43.538;5.250;2022-09-02T01:34:04;10.03;;;6.70;;
16288;SDS011;26089;43.538;5.250;2022-09-02T01:36:31;8.20;;;6.70;;
16288;SDS011;26089;43.538;5.250;2022-09-02T01:39:00;6.90;;;6.20;;
16288;SDS011;26089;43.538;5.250;2022-09-02T01:41:27;7.97;;;6.83;;
16288;SDS011;26089;43.538;5.250;2022-09-02T01:43:54;8.87;;;6.97;;
16288;SDS011;26089;43.538;5.250;2022-09-02T01:46:22;7.40;;;6.67;;
16288;SDS011;26089;43.538;5.250;2022-09-02T01:48:49;7.27;;;6.57;;
16288;SDS011;26089;43.538;5.250;2022-09-02T01:51:17;7.13;;;6.20;;
16288;SDS011;26089;43.538;5.250;2022-09-02T01:53:46;9.10;;;6.27;;
16288;SDS011;26089;43.538;5.250;2022-09-02T01:56:14;8.70;;;6.50;;
16288;SDS011;26089;43.538;5.250;2022-09-02T01:58:42;8.73;;;6.93;;
16288;SDS011;26089;43.538;5.250;2022-09-02T02:01:09;6.50;;;5.90;;
16288;SDS011;26089;43.538;5.250;2022-09-02T02:03:36;8.20;;;6.13;;
16288;SDS011;26089;43.538;5.250;2022-09-02T02:06:07;6.47;;;5.80;;
16288;SDS011;26089;43.538;5.250;2022-09-02T02:08:35;7.00;;;6.07;;
16288;SDS011;26089;43.538;5.250;2022-09-02T02:11:02;8.37;;;6.43;;
16288;SDS011;26089;43.538;5.250;2022-09-02T02:13:31;8.03;;;6.00;;
16288;SDS011;26089;43.538;5.250;2022-09-02T02:15:58;7.93;;;6.40;;
16288;SDS011;26089;43.538;5.250;2022-09-02T02:18:25;8.07;;;6.50;;
16288;SDS011;26089;43.538;5.250;2022-09-02T02:20:54;7.90;;;6.57;;
16288;SDS011;26089;43.538;5.250;2022-09-02T02:23:21;7.67;;;6.73;;
16288;SDS011;26089;43.538;5.250;2022-09-02T02:25:48;6.83;;;6.23;;
16288;SDS011;26089;43.538;5.250;2022-09-02T02:28:15;9.57;;;6.57;;
16288;SDS011;26089;43.538;5.250;2022-09-02T02:30:44;8.23;;;6.43;;
16288;SDS011;26089;43.538;5.250;2022-09-02T02:33:11;7.63;;;6.77;;
16288;SDS011;26089;43.538;5.250;2022-09-02T02:35:38;7.60;;;6.57;;
16288;SDS011;26089;43.538;5.250;2022-09-02T02:38:05;9.73;;;6.60;;
16288;SDS011;26089;43.538;5.250;2022-09-02T02:40:32;7.40;;;6.57;;
16288;SDS011;26089;43.538;5.250;2022-09-02T02:43:00;6.93;;;6.13;;
16288;SDS011;26089;43.538;5.250;2022-09-02T02:45:27;8.40;;;6.83;;
16288;SDS011;26089;43.538;5.250;2022-09-02T02:47:55;7.30;;;6.67;;
16288;SDS011;26089;43.538;5.250;2022-09-02T02:50:23;7.97;;;6.70;;
16288;SDS011;26089;43.538;5.250;2022-09-02T02:52:52;7.20;;;5.97;;
16288;SDS011;26089;43.538;5.250;2022-09-02T02:55:20;7.37;;;6.20;;
16288;SDS011;26089;43.538;5.250;2022-09-02T02:57:48;7.10;;;6.40;;
16288;SDS011;26089;43.538;5.250;2022-09-02T03:00:18;6.53;;;5.97;;
16288;SDS011;26089;43.538;5.250;2022-09-02T03:02:47;7.23;;;6.53;;
16288;SDS011;26089;43.538;5.250;2022-09-02T03:05:16;8.73;;;6.47;;
16288;SDS011;26089;43.538;5.250;2022-09-02T03:07:43;6.87;;;6.27;;
16288;SDS011;26089;43.538;5.250;2022-09-02T03:10:11;7.40;;;6.70;;
16288;SDS011;26089;43.538;5.250;2022-09-02T03:12:38;7.33;;;6.67;;
16288;SDS011;26089;43.538;5.250;2022-09-02T03:15:07;8.13;;;6.10;;
16288;SDS011;26089;43.538;5.250;2022-09-02T03:17:35;9.07;;;6.13;;
16288;SDS011;26089;43.538;5.250;2022-09-02T03:20:03;8.60;;;6.53;;
16288;SDS011;26089;43.538;5.250;2022-09-02T03:22:33;7.53;;;6.03;;
16288;SDS011;26089;43.538;5.250;2022-09-02T03:25:03;8.80;;;6.83;;
16288;SDS011;26089;43.538;5.250;2022-09-02T03:27:30;8.07;;;6.70;;
16288;SDS011;26089;43.538;5.250;2022-09-02T03:29:58;6.77;;;6.17;;
16288;SDS011;26089;43.538;5.250;2022-09-02T03:32:25;7.30;;;5.97;;
16288;SDS011;26089;43.538;5.250;2022-09-02T03:34:53;6.83;;;6.13;;
16288;SDS011;26089;43.538;5.250;2022-09-02T03:37:20;7.20;;;6.23;;
16288;SDS011;26089;43.538;5.250;2022-09-02T03:39:48;7.23;;;6.10;;
16288;SDS011;26089;43.538;5.250;2022-09-02T03:42:15;7.07;;;6.13;;
16288;SDS011;26089;43.538;5.250;2022-09-02T03:44:42;10.77;;;6.33;;
16288;SDS011;26089;43.538;5.250;2022-09-02T03:47:09;7.00;;;6.30;;
16288;SDS011;26089;43.538;5.250;2022-09-02T03:49:38;6.93;;;6.27;;
16288;SDS011;26089;43.538;5.250;2022-09-02T03:52:05;9.10;;;6.10;;
16288;SDS011;26089;43.538;5.250;2022-09-02T03:54:32;10.13;;;7.10;;
16288;SDS011;26089;43.538;5.250;2022-09-02T03:57:00;8.60;;;6.20;;
16288;SDS011;26089;43.538;5.250;2022-09-02T03:59:27;7.70;;;6.23;;
16288;SDS011;26089;43.538;5.250;2022-09-02T04:01:54;6.60;;;5.93;;
16288;SDS011;26089;43.538;5.250;2022-09-02T04:04:21;6.80;;;6.00;;
16288;SDS011;26089;43.538;5.250;2022-09-02T04:06:48;6.53;;;5.73;;
16288;SDS011;26089;43.538;5.250;2022-09-02T04:09:15;6.80;;;6.30;;
16288;SDS011;26089;43.538;5.250;2022-09-02T04:11:42;8.30;;;5.90;;
16288;SDS011;26089;43.538;5.250;2022-09-02T04:14:11;7.63;;;5.77;;
16288;SDS011;26089;43.538;5.250;2022-09-02T04:16:38;6.10;;;5.50;;
16288;SDS011;26089;43.538;5.250;2022-09-02T04:19:06;7.67;;;6.20;;
16288;SDS011;26089;43.538;5.250;2022-09-02T04:21:34;6.63;;;5.93;;
16288;SDS011;26089;43.538;5.250;2022-09-02T04:24:03;7.67;;;6.50;;
16288;SDS011;26089;43.538;5.250;2022-09-02T04:26:31;7.83;;;6.20;;
16288;SDS011;26089;43.538;5.250;2022-09-02T04:28:58;6.83;;;6.00;;
16288;SDS011;26089;43.538;5.250;2022-09-02T04:31:27;9.50;;;5.87;;
16288;SDS011;26089;43.538;5.250;2022-09-02T04:33:56;6.37;;;5.80;;
16288;SDS011;26089;43.538;5.250;2022-09-02T04:36:24;7.23;;;6.13;;
16288;SDS011;26089;43.538;5.250;2022-09-02T04:38:51;6.17;;;5.67;;
16288;SDS011;26089;43.538;5.250;2022-09-02T04:41:21;6.93;;;6.20;;
16288;SDS011;26089;43.538;5.250;2022-09-02T04:43:50;8.43;;;6.37;;
16288;SDS011;26089;43.538;5.250;2022-09-02T04:46:19;6.83;;;6.13;;
16288;SDS011;26089;43.538;5.250;2022-09-02T04:48:47;6.63;;;5.97;;
16288;SDS011;26089;43.538;5.250;2022-09-02T04:51:16;7.23;;;6.57;;
16288;SDS011;26089;43.538;5.250;2022-09-02T04:53:45;6.80;;;6.10;;
16288;SDS011;26089;43.538;5.250;2022-09-02T04:56:15;8.33;;;6.63;;
16288;SDS011;26089;43.538;5.250;2022-09-02T04:58:44;7.00;;;6.30;;
16288;SDS011;26089;43.538;5.250;2022-09-02T05:01:12;6.77;;;6.07;;
16288;SDS011;26089;43.538;5.250;2022-09-02T05:03:42;7.50;;;6.63;;
16288;SDS011;26089;43.538;5.250;2022-09-02T05:06:12;7.67;;;6.10;;
16288;SDS011;26089;43.538;5.250;2022-09-02T05:08:40;8.17;;;7.13;;
16288;SDS011;26089;43.538;5.250;2022-09-02T05:11:07;8.47;;;6.97;;
16288;SDS011;26089;43.538;5.250;2022-09-02T05:13:37;9.03;;;6.23;;
16288;SDS011;26089;43.538;5.250;2022-09-02T05:16:05;7.47;;;6.23;;
16288;SDS011;26089;43.538;5.250;2022-09-02T05:18:32;6.80;;;6.07;;
16288;SDS011;26089;43.538;5.250;2022-09-02T05:21:02;7.33;;;6.60;;
16288;SDS011;26089;43.538;5.250;2022-09-02T05:23:31;7.73;;;6.90;;
16288;SDS011;26089;43.538;5.250;2022-09-02T05:26:01;8.93;;;5.70;;
16288;SDS011;26089;43.538;5.250;2022-09-02T05:28:28;9.33;;;6.13;;
16288;SDS011;26089;43.538;5.250;2022-09-02T05:31:00;6.43;;;5.83;;
16288;SDS011;26089;43.538;5.250;2022-09-02T05:33:30;6.77;;;6.07;;
16288;SDS011;26089;43.538;5.250;2022-09-02T05:35:57;6.57;;;6.07;;
16288;SDS011;26089;43.538;5.250;2022-09-02T05:38:25;6.93;;;5.80;;
16288;SDS011;26089;43.538;5.250;2022-09-02T05:40:53;5.97;;;5.47;;
16288;SDS011;26089;43.538;5.250;2022-09-02T05:43:20;6.57;;;6.07;;
16288;SDS011;26089;43.538;5.250;2022-09-02T05:45:48;6.93;;;6.33;;
16288;SDS011;26089;43.538;5.250;2022-09-02T05:48:15;7.80;;;6.40;;
16288;SDS011;26089;43.538;5.250;2022-09-02T05:51:02;6.13;;;5.53;;
16288;SDS011;26089;43.538;5.250;2022-09-02T05:53:29;7.73;;;5.90;;
16288;SDS011;26089;43.538;5.250;2022-09-02T05:56:01;6.27;;;5.77;;
16288;SDS011;26089;43.538;5.250;2022-09-02T05:58:30;6.30;;;5.80;;
16288;SDS011;26089;43.538;5.250;2022-09-02T06:00:57;6.40;;;5.43;;
16288;SDS011;26089;43.538;5.250;2022-09-02T06:03:24;7.43;;;6.23;;
16288;SDS011;26089;43.538;5.250;2022-09-02T06:05:54;9.23;;;5.17;;
16288;SDS011;26089;43.538;5.250;2022-09-02T06:08:22;6.40;;;5.80;;
16288;SDS011;26089;43.538;5.250;2022-09-02T06:10:50;9.60;;;6.17;;
16288;SDS011;26089;43.538;5.250;2022-09-02T06:13:18;8.10;;;6.30;;
16288;SDS011;26089;43.538;5.250;2022-09-02T06:15:46;6.50;;;5.90;;
16288;SDS011;26089;43.538;5.250;2022-09-02T06:18:14;9.63;;;5.67;;
16288;SDS011;26089;43.538;5.250;2022-09-02T06:20:41;6.43;;;5.77;;
16288;SDS011;26089;43.538;5.250;2022-09-02T06:23:10;6.10;;;5.60;;
16288;SDS011;26089;43.538;5.250;2022-09-02T06:25:38;8.30;;;6.40;;
16288;SDS011;26089;43.538;5.250;2022-09-02T06:28:06;6.77;;;5.70;;
16288;SDS011;26089;43.538;5.250;2022-09-02T06:30:36;6.23;;;5.63;;
16288;SDS011;26089;43.538;5.250;2022-09-02T06:33:04;7.17;;;5.90;;
16288;SDS011;26089;43.538;5.250;2022-09-02T06:35:34;7.77;;;6.00;;
16288;SDS011;26089;43.538;5.250;2022-09-02T06:38:03;6.63;;;6.03;;
16288;SDS011;26089;43.538;5.250;2022-09-02T06:40:30;8.70;;;5.80;;
16288;SDS011;26089;43.538;5.250;2022-09-02T06:42:57;8.03;;;6.17;;
16288;SDS011;26089;43.538;5.250;2022-09-02T06:45:24;5.50;;;5.03;;
16288;SDS011;26089;43.538;5.250;2022-09-02T06:47:53;5.90;;;5.40;;
16288;SDS011;26089;43.538;5.250;2022-09-02T06:50:20;6.23;;;5.67;;
16288;SDS011;26089;43.538;5.250;2022-09-02T06:52:47;6.10;;;5.57;;
16288;SDS011;26089;43.538;5.250;2022-09-02T06:55:14;6.67;;;6.00;;
16288;SDS011;26089;43.538;5.250;2022-09-02T06:57:42;6.43;;;5.83;;
16288;SDS011;26089;43.538;5.250;2022-09-02T07:00:09;6.30;;;5.80;;
16288;SDS011;26089;43.538;5.250;2022-09-02T07:02:37;6.83;;;5.90;;
16288;SDS011;26089;43.538;5.250;2022-09-02T07:05:06;6.80;;;6.10;;
16288;SDS011;26089;43.538;5.250;2022-09-02T07:07:39;8.30;;;6.10;;
16288;SDS011;26089;43.538;5.250;2022-09-02T07:10:09;6.27;;;5.77;;
16288;SDS011;26089;43.538;5.250;2022-09-02T07:12:38;7.00;;;5.87;;
16288;SDS011;26089;43.538;5.250;2022-09-02T07:15:06;8.27;;;6.53;;
16288;SDS011;26089;43.538;5.250;2022-09-02T07:17:34;8.20;;;6.17;;
16288;SDS011;26089;43.538;5.250;2022-09-02T07:20:02;6.60;;;5.87;;
16288;SDS011;26089;43.538;5.250;2022-09-02T07:22:31;6.10;;;5.50;;
16288;SDS011;26089;43.538;5.250;2022-09-02T07:24:58;6.73;;;5.43;;
16288;SDS011;26089;43.538;5.250;2022-09-02T07:27:26;7.03;;;5.80;;
16288;SDS011;26089;43.538;5.250;2022-09-02T07:29:53;6.47;;;5.03;;
16288;SDS011;26089;43.538;5.250;2022-09-02T07:32:20;7.33;;;5.70;;
16288;SDS011;26089;43.538;5.250;2022-09-02T07:34:47;6.37;;;5.87;;
16288;SDS011;26089;43.538;5.250;2022-09-02T07:37:14;5.93;;;5.37;;
16288;SDS011;26089;43.538;5.250;2022-09-02T07:39:43;6.43;;;4.90;;
16288;SDS011;26089;43.538;5.250;2022-09-02T07:42:10;7.80;;;6.07;;
16288;SDS011;26089;43.538;5.250;2022-09-02T07:44:37;7.13;;;5.67;;
16288;SDS011;26089;43.538;5.250;2022-09-02T07:47:05;5.83;;;5.23;;
16288;SDS011;26089;43.538;5.250;2022-09-02T07:49:32;5.83;;;5.33;;
16288;SDS011;26089;43.538;5.250;2022-09-02T07:51:59;6.37;;;5.63;;
16288;SDS011;26089;43.538;5.250;2022-09-02T07:54:26;7.15;;;5.63;;
16288;SDS011;26089;43.538;5.250;2022-09-02T07:56:58;7.90;;;5.85;;
16288;SDS011;26089;43.538;5.250;2022-09-02T07:59:25;7.47;;;5.70;;
16288;SDS011;26089;43.538;5.250;2022-09-02T08:01:52;5.80;;;5.28;;
16288;SDS011;26089;43.538;5.250;2022-09-02T08:04:19;7.05;;;6.35;;
16288;SDS011;26089;43.538;5.250;2022-09-02T08:06:47;6.15;;;5.20;;
16288;SDS011;26089;43.538;5.250;2022-09-02T08:09:16;5.55;;;4.72;;
16288;SDS011;26089;43.538;5.250;2022-09-02T08:11:44;8.93;;;5.78;;
16288;SDS011;26089;43.538;5.250;2022-09-02T08:14:16;7.85;;;5.30;;
16288;SDS011;26089;43.538;5.250;2022-09-02T08:16:48;7.78;;;5.10;;
16288;SDS011;26089;43.538;5.250;2022-09-02T08:19:15;6.07;;;5.13;;
16288;SDS011;26089;43.538;5.250;2022-09-02T08:21:42;5.65;;;4.85;;
16288;SDS011;26089;43.538;5.250;2022-09-02T08:24:09;5.13;;;4.63;;
16288;SDS011;26089;43.538;5.250;2022-09-02T08:26:36;5.57;;;5.07;;
16288;SDS011;26089;43.538;5.250;2022-09-02T08:29:04;7.47;;;4.68;;
16288;SDS011;26089;43.538;5.250;2022-09-02T08:31:35;6.35;;;4.78;;
16288;SDS011;26089;43.538;5.250;2022-09-02T08:34:02;6.10;;;5.10;;
16288;SDS011;26089;43.538;5.250;2022-09-02T08:36:29;8.27;;;5.70;;
16288;SDS011;26089;43.538;5.250;2022-09-02T08:38:56;9.32;;;4.93;;
16288;SDS011;26089;43.538;5.250;2022-09-02T08:41:24;4.90;;;4.50;;
16288;SDS011;26089;43.538;5.250;2022-09-02T08:43:54;7.90;;;4.85;;
16288;SDS011;26089;43.538;5.250;2022-09-02T08:46:23;7.03;;;4.90;;
16288;SDS011;26089;43.538;5.250;2022-09-02T08:48:54;5.70;;;5.18;;
16288;SDS011;26089;43.538;5.250;2022-09-02T08:51:26;7.63;;;4.60;;
16288;SDS011;26089;43.538;5.250;2022-09-02T08:53:56;5.00;;;4.50;;
16288;SDS011;26089;43.538;5.250;2022-09-02T08:56:29;4.70;;;4.25;;
16288;SDS011;26089;43.538;5.250;2022-09-02T08:58:56;6.18;;;4.95;;
16288;SDS011;26089;43.538;5.250;2022-09-02T09:01:29;5.53;;;4.40;;
16288;SDS011;26089;43.538;5.250;2022-09-02T09:04:07;5.15;;;4.70;;
16288;SDS011;26089;43.538;5.250;2022-09-02T09:06:52;4.95;;;4.63;;
16288;SDS011;26089;43.538;5.250;2022-09-02T09:09:34;4.60;;;4.30;;
16288;SDS011;26089;43.538;5.250;2022-09-02T09:12:12;6.15;;;4.82;;
16288;SDS011;26089;43.538;5.250;2022-09-02T09:14:48;6.35;;;4.40;;
16288;SDS011;26089;43.538;5.250;2022-09-02T09:17:24;5.25;;;4.50;;
16288;SDS011;26089;43.538;5.250;2022-09-02T09:19:58;5.40;;;4.75;;
16288;SDS011;26089;43.538;5.250;2022-09-02T09:22:29;8.82;;;4.90;;
16288;SDS011;26089;43.538;5.250;2022-09-02T09:25:02;6.50;;;4.32;;
16288;SDS011;26089;43.538;5.250;2022-09-02T09:27:35;5.47;;;4.68;;
16288;SDS011;26089;43.538;5.250;2022-09-02T09:30:04;6.50;;;4.70;;
16288;SDS011;26089;43.538;5.250;2022-09-02T09:32:34;7.60;;;5.00;;
16288;SDS011;26089;43.538;5.250;2022-09-02T09:35:08;5.63;;;4.90;;
16288;SDS011;26089;43.538;5.250;2022-09-02T09:37:37;6.30;;;4.95;;
16288;SDS011;26089;43.538;5.250;2022-09-02T09:40:25;4.97;;;4.57;;
16288;SDS011;26089;43.538;5.250;2022-09-02T09:42:55;9.13;;;4.90;;
16288;SDS011;26089;43.538;5.250;2022-09-02T09:45:28;6.03;;;4.47;;
16288;SDS011;26089;43.538;5.250;2022-09-02T09:50:46;5.88;;;4.93;;
16288;SDS011;26089;43.538;5.250;2022-09-02T09:53:14;5.70;;;4.75;;
16288;SDS011;26089;43.538;5.250;2022-09-02T09:55:52;6.68;;;5.07;;
16288;SDS011;26089;43.538;5.250;2022-09-02T09:58:21;7.55;;;5.03;;
16288;SDS011;26089;43.538;5.250;2022-09-02T10:00:50;5.25;;;4.63;;
16288;SDS011;26089;43.538;5.250;2022-09-02T10:03:22;8.45;;;4.80;;
16288;SDS011;26089;43.538;5.250;2022-09-02T10:05:54;6.45;;;4.80;;
16288;SDS011;26089;43.538;5.250;2022-09-02T10:08:22;5.20;;;4.50;;
16288;SDS011;26089;43.538;5.250;2022-09-02T10:10:56;7.88;;;4.82;;
16288;SDS011;26089;43.538;5.250;2022-09-02T10:13:25;5.25;;;4.75;;
16288;SDS011;26089;43.538;5.250;2022-09-02T10:16:08;5.60;;;4.70;;
16288;SDS011;26089;43.538;5.250;2022-09-02T10:18:56;6.03;;;4.72;;
16288;SDS011;26089;43.538;5.250;2022-09-02T10:21:38;6.05;;;5.30;;
16288;SDS011;26089;43.538;5.250;2022-09-02T10:24:23;7.15;;;4.95;;
16288;SDS011;26089;43.538;5.250;2022-09-02T10:26:57;6.57;;;5.15;;
16288;SDS011;26089;43.538;5.250;2022-09-02T10:29:34;7.13;;;5.07;;
16288;SDS011;26089;43.538;5.250;2022-09-02T10:32:31;6.95;;;4.90;;
16288;SDS011;26089;43.538;5.250;2022-09-02T10:35:07;6.63;;;5.13;;
16288;SDS011;26089;43.538;5.250;2022-09-02T10:37:45;7.53;;;5.25;;
16288;SDS011;26089;43.538;5.250;2022-09-02T10:40:24;8.15;;;5.20;;
16288;SDS011;26089;43.538;5.250;2022-09-02T10:43:03;5.97;;;5.25;;
16288;SDS011;26089;43.538;5.250;2022-09-02T10:45:33;7.05;;;5.25;;
16288;SDS011;26089;43.538;5.250;2022-09-02T10:48:14;5.93;;;4.93;;
16288;SDS011;26089;43.538;5.250;2022-09-02T10:50:52;8.20;;;4.95;;
16288;SDS011;26089;43.538;5.250;2022-09-02T10:53:34;6.20;;;4.75;;
16288;SDS011;26089;43.538;5.250;2022-09-02T10:56:13;6.28;;;4.78;;
16288;SDS011;26089;43.538;5.250;2022-09-02T10:58:47;9.10;;;4.97;;
16288;SDS011;26089;43.538;5.250;2022-09-02T11:01:19;5.72;;;4.90;;
16288;SDS011;26089;43.538;5.250;2022-09-02T11:03:55;5.70;;;5.13;;
16288;SDS011;26089;43.538;5.250;2022-09-02T11:06:28;5.07;;;4.68;;
16288;SDS011;26089;43.538;5.250;2022-09-02T11:08:59;7.13;;;4.90;;
16288;SDS011;26089;43.538;5.250;2022-09-02T11:11:34;5.38;;;4.38;;
16288;SDS011;26089;43.538;5.250;2022-09-02T11:14:10;4.72;;;4.32;;
16288;SDS011;26089;43.538;5.250;2022-09-02T11:16:46;4.75;;;4.30;;
16288;SDS011;26089;43.538;5.250;2022-09-02T11:19:18;8.70;;;4.57;;
16288;SDS011;26089;43.538;5.250;2022-09-02T11:21:54;8.25;;;4.90;;
16288;SDS011;26089;43.538;5.250;2022-09-02T11:24:29;5.78;;;4.85;;
16288;SDS011;26089;43.538;5.250;2022-09-02T11:27:01;5.72;;;4.13;;
16288;SDS011;26089;43.538;5.250;2022-09-02T11:29:35;5.95;;;4.20;;
16288;SDS011;26089;43.538;5.250;2022-09-02T11:32:09;6.05;;;4.22;;
16288;SDS011;26089;43.538;5.250;2022-09-02T11:34:43;4.97;;;4.40;;
16288;SDS011;26089;43.538;5.250;2022-09-02T11:37:14;7.00;;;4.18;;
16288;SDS011;26089;43.538;5.250;2022-09-02T11:39:55;5.75;;;4.60;;
16288;SDS011;26089;43.538;5.250;2022-09-02T11:42:32;4.63;;;4.20;;
16288;SDS011;26089;43.538;5.250;2022-09-02T11:45:37;4.45;;;4.05;;
16288;SDS011;26089;43.538;5.250;2022-09-02T11:48:27;5.22;;;4.57;;
16288;SDS011;26089;43.538;5.250;2022-09-02T11:51:32;5.57;;;4.80;;
16288;SDS011;26089;43.538;5.250;2022-09-02T11:54:17;4.65;;;4.28;;
16288;SDS011;26089;43.538;5.250;2022-09-02T11:56:47;6.80;;;4.40;;
16288;SDS011;26089;43.538;5.250;2022-09-02T11:59:21;4.68;;;4.20;;
16288;SDS011;26089;43.538;5.250;2022-09-02T12:01:49;4.82;;;4.30;;
16288;SDS011;26089;43.538;5.250;2022-09-02T12:04:18;4.78;;;4.25;;
16288;SDS011;26089;43.538;5.250;2022-09-02T12:09:51;4.05;;;3.63;;
16288;SDS011;26089;43.538;5.250;2022-09-02T12:15:26;5.70;;;4.07;;
16288;SDS011;26089;43.538;5.250;2022-09-02T12:29:49;4.63;;;3.90;;
16288;SDS011;26089;43.538;5.250;2022-09-02T12:35:32;6.07;;;4.43;;
16288;SDS011;26089;43.538;5.250;2022-09-02T12:38:21;5.60;;;3.97;;
16288;SDS011;26089;43.538;5.250;2022-09-02T12:40:54;6.53;;;3.92;;
16288;SDS011;26089;43.538;5.250;2022-09-02T12:43:45;4.65;;;4.25;;
16288;SDS011;26089;43.538;5.250;2022-09-02T12:46:26;4.35;;;3.95;;
16288;SDS011;26089;43.538;5.250;2022-09-02T12:49:02;6.15;;;4.05;;
16288;SDS011;26089;43.538;5.250;2022-09-02T12:51:53;4.18;;;3.72;;
16288;SDS011;26089;43.538;5.250;2022-09-02T12:54:23;4.50;;;4.18;;
16288;SDS011;26089;43.538;5.250;2022-09-02T12:56:57;4.63;;;4.15;;
16288;SDS011;26089;43.538;5.250;2022-09-02T12:59:26;4.38;;;3.97;;
16288;SDS011;26089;43.538;5.250;2022-09-02T13:04:54;6.55;;;4.15;;
16288;SDS011;26089;43.538;5.250;2022-09-02T13:07:37;4.03;;;3.53;;
16288;SDS011;26089;43.538;5.250;2022-09-02T13:10:37;5.82;;;4.10;;
16288;SDS011;26089;43.538;5.250;2022-09-02T13:16:28;4.65;;;4.15;;
16288;SDS011;26089;43.538;5.250;2022-09-02T13:22:11;4.30;;;3.90;;
16288;SDS011;26089;43.538;5.250;2022-09-02T13:25:05;4.75;;;3.95;;
16288;SDS011;26089;43.538;5.250;2022-09-02T13:31:05;6.25;;;3.97;;
16288;SDS011;26089;43.538;5.250;2022-09-02T13:33:38;5.28;;;3.78;;
16288;SDS011;26089;43.538;5.250;2022-09-02T13:36:06;4.35;;;3.95;;
16288;SDS011;26089;43.538;5.250;2022-09-02T13:38:34;4.38;;;4.07;;
16288;SDS011;26089;43.538;5.250;2022-09-02T13:41:03;5.05;;;4.00;;
16288;SDS011;26089;43.538;5.250;2022-09-02T13:43:31;5.15;;;3.88;;
16288;SDS011;26089;43.538;5.250;2022-09-02T13:45:58;4.93;;;4.07;;
16288;SDS011;26089;43.538;5.250;2022-09-02T13:48:27;4.97;;;4.05;;
16288;SDS011;26089;43.538;5.250;2022-09-02T13:50:58;4.20;;;3.80;;
16288;SDS011;26089;43.538;5.250;2022-09-02T13:53:32;4.35;;;4.00;;
16288;SDS011;26089;43.538;5.250;2022-09-02T13:56:02;12.32;;;4.40;;
16288;SDS011;26089;43.538;5.250;2022-09-02T13:58:34;6.32;;;4.38;;
16288;SDS011;26089;43.538;5.250;2022-09-02T14:01:17;8.18;;;4.70;;
16288;SDS011;26089;43.538;5.250;2022-09-02T14:03:46;5.75;;;4.50;;
16288;SDS011;26089;43.538;5.250;2022-09-02T14:06:16;5.30;;;4.47;;
16288;SDS011;26089;43.538;5.250;2022-09-02T14:08:47;7.05;;;4.90;;
16288;SDS011;26089;43.538;5.250;2022-09-02T14:11:17;6.88;;;4.68;;
16288;SDS011;26089;43.538;5.250;2022-09-02T14:13:45;4.57;;;4.18;;
16288;SDS011;26089;43.538;5.250;2022-09-02T14:16:27;6.40;;;4.53;;
16288;SDS011;26089;43.538;5.250;2022-09-02T14:21:50;8.65;;;4.78;;
16288;SDS011;26089;43.538;5.250;2022-09-02T14:24:19;5.47;;;4.85;;
16288;SDS011;26089;43.538;5.250;2022-09-02T14:26:49;7.50;;;5.05;;
16288;SDS011;26089;43.538;5.250;2022-09-02T14:29:18;5.88;;;5.07;;
16288;SDS011;26089;43.538;5.250;2022-09-02T14:31:46;8.25;;;5.45;;
16288;SDS011;26089;43.538;5.250;2022-09-02T14:34:31;6.32;;;5.40;;
16288;SDS011;26089;43.538;5.250;2022-09-02T14:37:19;10.25;;;6.45;;
16288;SDS011;26089;43.538;5.250;2022-09-02T14:40:04;6.75;;;5.88;;
16288;SDS011;26089;43.538;5.250;2022-09-02T14:42:42;9.25;;;6.10;;
16288;SDS011;26089;43.538;5.250;2022-09-02T14:45:11;10.45;;;6.53;;
16288;SDS011;26089;43.538;5.250;2022-09-02T14:47:38;10.03;;;6.87;;
16288;SDS011;26089;43.538;5.250;2022-09-02T14:50:08;13.25;;;6.72;;
16288;SDS011;26089;43.538;5.250;2022-09-02T14:52:43;12.45;;;7.05;;
16288;SDS011;26089;43.538;5.250;2022-09-02T14:58:10;9.20;;;5.80;;
16288;SDS011;26089;43.538;5.250;2022-09-02T15:00:37;8.80;;;6.13;;
16288;SDS011;26089;43.538;5.250;2022-09-02T15:03:04;9.18;;;6.47;;
16288;SDS011;26089;43.538;5.250;2022-09-02T15:05:32;9.37;;;6.00;;
16288;SDS011;26089;43.538;5.250;2022-09-02T15:07:59;6.60;;;5.87;;
16288;SDS011;26089;43.538;5.250;2022-09-02T15:10:26;9.32;;;6.10;;
16288;SDS011;26089;43.538;5.250;2022-09-02T15:12:53;7.37;;;6.27;;
16288;SDS011;26089;43.538;5.250;2022-09-02T15:15:23;13.97;;;6.50;;
16288;SDS011;26089;43.538;5.250;2022-09-02T15:17:51;10.07;;;6.77;;
16288;SDS011;26089;43.538;5.250;2022-09-02T15:20:18;11.53;;;6.73;;
16288;SDS011;26089;43.538;5.250;2022-09-02T15:22:46;9.57;;;6.10;;
16288;SDS011;26089;43.538;5.250;2022-09-02T15:25:15;11.33;;;6.63;;
16288;SDS011;26089;43.538;5.250;2022-09-02T15:27:42;10.00;;;5.63;;
16288;SDS011;26089;43.538;5.250;2022-09-02T15:30:10;6.37;;;5.47;;
16288;SDS011;26089;43.538;5.250;2022-09-02T15:32:39;5.37;;;4.87;;
16288;SDS011;26089;43.538;5.250;2022-09-02T15:35:06;8.50;;;5.33;;
16288;SDS011;26089;43.538;5.250;2022-09-02T15:37:34;7.27;;;4.90;;
16288;SDS011;26089;43.538;5.250;2022-09-02T15:40:02;6.23;;;4.60;;
16288;SDS011;26089;43.538;5.250;2022-09-02T15:42:32;8.13;;;4.97;;
16288;SDS011;26089;43.538;5.250;2022-09-02T15:44:59;6.85;;;4.63;;
16288;SDS011;26089;43.538;5.250;2022-09-02T15:47:27;7.82;;;4.53;;
16288;SDS011;26089;43.538;5.250;2022-09-02T15:49:56;6.53;;;4.20;;
16288;SDS011;26089;43.538;5.250;2022-09-02T15:52:23;5.18;;;4.05;;